createdAt,value
2023-01-23T00:02:10.989Z,26.23
2023-01-23T00:04:38.311Z,35.55
2023-01-23T00:07:05.465Z,25.05
2023-01-23T00:09:32.607Z,33.38
2023-01-23T00:11:59.815Z,34.38
2023-01-23T00:14:26.978Z,32.50
2023-01-23T00:16:54.184Z,35.00
2023-01-23T00:19:21.371Z,34.28
2023-01-23T00:21:48.486Z,35.90
2023-01-23T00:24:15.611Z,36.55
2023-01-23T00:26:42.734Z,26.98
2023-01-23T00:29:10.001Z,25.80
2023-01-23T00:31:37.998Z,34.60
2023-01-23T00:34:06.561Z,29.48
2023-01-23T00:36:38.320Z,33.38
2023-01-23T00:39:07.003Z,28.67
2023-01-23T00:41:34.404Z,28.52
2023-01-23T00:44:01.872Z,27.00
2023-01-23T00:46:29.077Z,21.15
2023-01-23T00:48:56.218Z,27.52
2023-01-23T00:51:23.517Z,24.67
2023-01-23T00:53:50.712Z,27.95
2023-01-23T00:56:17.863Z,21.35
2023-01-23T00:58:45.463Z,23.38
2023-01-23T01:01:13.835Z,22.02
2023-01-23T01:03:40.988Z,23.02
2023-01-23T01:06:08.158Z,20.02
2023-01-23T01:08:35.531Z,16.65
2023-01-23T01:11:02.675Z,17.58
2023-01-23T01:13:30.656Z,15.13
2023-01-23T01:15:58.132Z,16.27
2023-01-23T01:18:25.319Z,19.05
2023-01-23T01:20:52.459Z,16.05
2023-01-23T05:04:43.881Z,37.67
2023-01-23T05:07:12.262Z,46.03
2023-01-23T05:09:40.301Z,40.85
2023-01-23T05:12:07.823Z,46.28
2023-01-23T05:14:34.994Z,44.92
2023-01-23T05:17:02.127Z,52.35
2023-01-23T05:19:29.283Z,52.58
2023-01-23T05:21:56.416Z,59.47
2023-01-23T05:24:23.479Z,54.25
2023-01-23T05:26:50.684Z,64.75
2023-01-23T05:29:17.822Z,61.08
2023-01-23T05:31:44.931Z,55.47
2023-01-23T05:34:12.139Z,64.32
2023-01-23T05:36:39.227Z,63.13
2023-01-23T05:39:06.417Z,57.42
2023-01-23T05:41:33.628Z,58.35
2023-01-23T05:44:00.709Z,54.33
2023-01-23T05:46:27.892Z,51.83
2023-01-23T05:48:55.080Z,53.78
2023-01-23T05:51:23.293Z,46.08
2023-01-23T05:53:50.504Z,41.15
2023-01-23T05:56:17.672Z,42.75
2023-01-23T05:58:44.790Z,46.33
2023-01-23T06:01:11.862Z,39.65
2023-01-23T06:03:39.039Z,42.80
2023-01-23T06:06:06.263Z,39.60
2023-01-23T06:08:33.431Z,45.15
2023-01-23T06:11:00.716Z,38.28
2023-01-23T06:13:28.326Z,38.05
2023-01-23T06:15:55.799Z,38.25
2023-01-23T06:18:23.108Z,35.28
2023-01-23T06:20:50.175Z,33.92
2023-01-23T06:23:17.360Z,31.90
2023-01-23T06:25:44.562Z,36.97
2023-01-23T06:28:11.684Z,30.25
2023-01-23T06:30:38.784Z,28.58
2023-01-23T06:33:06.080Z,31.63
2023-01-23T06:35:33.218Z,32.97
2023-01-23T06:38:00.279Z,28.48
2023-01-23T06:40:27.455Z,25.45
2023-01-23T06:42:57.708Z,30.42
2023-01-23T06:45:24.878Z,28.65
2023-01-23T06:47:55.062Z,26.65
2023-01-23T06:50:22.445Z,26.83
2023-01-23T06:52:49.702Z,25.83
2023-01-23T06:55:16.926Z,26.30
2023-01-23T06:57:44.064Z,27.52
2023-01-23T07:00:11.480Z,22.65
2023-01-23T07:02:39.628Z,24.27
2023-01-23T07:05:06.983Z,22.30
2023-01-23T07:07:34.112Z,26.52
2023-01-23T07:10:01.254Z,26.75
2023-01-23T07:12:28.320Z,26.67
2023-01-23T07:14:55.457Z,24.13
2023-01-23T07:17:22.612Z,28.08
2023-01-23T07:19:49.733Z,23.98
2023-01-23T07:22:20.829Z,26.88
2023-01-23T07:24:48.034Z,21.20
2023-01-23T07:27:15.569Z,22.95
2023-01-23T07:29:43.156Z,26.65
2023-01-23T07:32:11.267Z,22.98
2023-01-23T07:34:38.533Z,24.65
2023-01-23T07:37:05.668Z,31.75
2023-01-23T07:39:33.007Z,20.48
2023-01-23T07:42:00.297Z,24.90
2023-01-23T07:44:27.539Z,22.50
2023-01-23T07:46:54.895Z,22.58
2023-01-23T07:49:22.117Z,23.92
2023-01-23T07:51:49.273Z,26.80
2023-01-23T07:54:16.504Z,23.60
2023-01-23T07:56:43.627Z,25.30
2023-01-23T07:59:12.052Z,24.10
2023-01-23T08:01:39.232Z,23.90
2023-01-23T08:04:06.546Z,26.10
2023-01-23T08:06:34.437Z,33.53
2023-01-23T08:09:01.631Z,30.38
2023-01-23T08:11:28.765Z,28.52
2023-01-23T08:13:55.938Z,25.38
2023-01-23T08:16:23.347Z,25.92
2023-01-23T08:18:50.732Z,28.92
2023-01-23T08:21:17.867Z,22.75
2023-01-23T08:23:46.444Z,17.00
2023-01-23T08:26:14.828Z,18.88
2023-01-23T08:28:43.338Z,18.15
2023-01-23T08:31:12.187Z,18.25
2023-01-23T08:33:40.030Z,19.00
2023-01-23T08:36:10.154Z,18.25
2023-01-23T08:38:38.462Z,15.50
2023-01-23T08:41:06.478Z,13.48
2023-01-23T08:43:34.004Z,13.40
2023-01-23T08:46:01.574Z,12.82
2023-01-23T08:48:29.482Z,15.85
2023-01-23T08:51:01.813Z,20.42
2023-01-23T08:53:29.516Z,16.05
2023-01-23T08:56:03.698Z,18.00
2023-01-23T08:58:30.949Z,14.90
2023-01-23T09:00:58.538Z,19.63
2023-01-23T09:03:25.784Z,14.35
2023-01-23T09:05:53.361Z,17.48
2023-01-23T09:08:20.534Z,13.75
2023-01-23T09:10:47.793Z,12.98
2023-01-23T09:13:14.978Z,13.13
2023-01-23T09:15:42.151Z,13.93
2023-01-23T09:18:09.413Z,15.02
2023-01-23T09:20:38.132Z,15.50
2023-01-23T09:23:05.474Z,13.10
2023-01-23T09:25:32.674Z,14.20
2023-01-23T09:27:59.859Z,17.73
2023-01-23T09:30:27.054Z,14.82
2023-01-23T09:32:54.399Z,14.98
2023-01-23T09:35:23.308Z,19.77
2023-01-23T09:37:59.954Z,20.45
2023-01-23T09:40:46.726Z,15.73
2023-01-23T09:43:36.337Z,19.13
2023-01-23T09:46:06.294Z,17.55
2023-01-23T09:48:39.668Z,12.30
2023-01-23T09:51:12.989Z,18.55
2023-01-23T09:53:42.610Z,20.77
2023-01-23T09:56:09.773Z,20.52
2023-01-23T09:58:39.266Z,20.40
2023-01-23T10:01:06.465Z,18.52
2023-01-23T10:03:33.629Z,18.85
2023-01-23T10:06:10.078Z,14.88
2023-01-23T10:08:55.981Z,14.88
2023-01-23T10:11:38.797Z,17.83
2023-01-23T10:14:20.958Z,17.92
2023-01-23T10:16:56.092Z,17.17
2023-01-23T13:25:44.312Z,21.50
2023-01-23T13:28:44.846Z,22.13
2023-01-23T13:33:40.433Z,18.83
2023-01-23T13:36:33.802Z,19.73
2023-01-23T13:39:00.936Z,20.00
2023-01-23T13:41:29.134Z,24.48
2023-01-23T13:44:05.048Z,24.67
2023-01-23T14:21:42.509Z,26.17
2023-01-23T14:24:23.715Z,25.65
2023-01-23T14:26:52.226Z,24.40
2023-01-23T14:29:23.692Z,21.65
2023-01-23T14:34:20.804Z,30.65
2023-01-23T14:36:50.948Z,26.00
2023-01-23T14:39:23.010Z,27.38
2023-01-23T14:41:51.195Z,23.38
2023-01-23T14:44:20.667Z,25.67
2023-01-23T14:46:50.943Z,26.92
2023-01-23T14:49:21.104Z,25.02
2023-01-23T14:52:04.440Z,27.67
2023-01-23T14:54:33.344Z,24.50
2023-01-23T14:57:05.570Z,27.70
2023-01-23T14:59:37.936Z,25.77
2023-01-23T15:02:29.163Z,29.63
2023-01-23T15:05:15.303Z,28.10
2023-01-23T15:07:54.927Z,25.75
2023-01-23T15:10:23.959Z,28.08
2023-01-23T15:12:53.186Z,27.58
2023-01-23T15:15:21.770Z,25.98
2023-01-23T15:17:49.950Z,26.08
2023-01-23T15:20:40.633Z,26.35
2023-01-23T15:23:21.689Z,30.20
2023-01-23T15:25:57.509Z,23.23
2023-01-23T15:28:46.712Z,28.10
2023-01-23T15:31:33.619Z,29.48
2023-01-23T15:34:16.149Z,24.10
2023-01-23T15:37:05.470Z,29.60
2023-01-23T15:39:38.018Z,27.65
2023-01-23T15:42:14.434Z,27.20
2023-01-23T15:44:42.916Z,25.13
2023-01-23T15:47:10.510Z,26.27
2023-01-23T15:49:38.884Z,26.67
2023-01-23T15:52:14.961Z,27.88
2023-01-23T15:54:42.176Z,28.40
2023-01-23T15:57:11.572Z,25.15
2023-01-23T15:59:38.777Z,33.03
2023-01-23T16:02:08.176Z,27.17
2023-01-23T16:04:36.558Z,23.63
2023-01-23T16:07:06.387Z,25.00
2023-01-23T16:09:36.567Z,30.05
2023-01-23T16:12:03.793Z,31.67
2023-01-23T16:14:31.039Z,25.95
2023-01-23T16:17:04.712Z,27.75
2023-01-23T16:19:38.817Z,30.47
2023-01-23T16:22:06.000Z,30.52
2023-01-23T16:24:37.940Z,28.15
2023-01-23T16:27:05.300Z,31.23
2023-01-23T16:29:33.566Z,31.48
2023-01-23T16:32:02.355Z,33.35
2023-01-23T16:34:29.983Z,30.75
2023-01-23T16:36:58.034Z,29.35
2023-01-23T16:39:26.760Z,33.83
2023-01-23T16:41:54.983Z,26.13
2023-01-23T16:44:23.937Z,29.67
2023-01-23T16:46:52.333Z,28.77
2023-01-23T16:49:20.315Z,35.38
2023-01-23T16:51:58.212Z,27.95
2023-01-23T16:54:26.439Z,30.50
2023-01-23T16:56:55.279Z,30.92
2023-01-23T16:59:28.789Z,34.17
2023-01-23T17:01:56.004Z,32.78
2023-01-23T17:04:23.212Z,30.33
2023-01-23T17:06:50.859Z,31.67
2023-01-23T17:09:18.072Z,38.80
2023-01-23T17:11:45.201Z,36.10
2023-01-23T17:14:17.400Z,34.80
2023-01-23T17:16:45.092Z,40.10
2023-01-23T17:19:32.422Z,35.15
2023-01-23T17:22:00.688Z,30.70
2023-01-23T17:24:28.013Z,28.90
2023-01-23T17:26:55.468Z,31.23
2023-01-23T17:29:23.063Z,35.00
2023-01-23T17:31:50.434Z,36.75
2023-01-23T17:34:25.869Z,35.35
2023-01-23T17:36:55.012Z,38.80
2023-01-23T17:39:22.233Z,35.33
2023-01-23T17:41:51.402Z,34.92
2023-01-23T17:44:18.592Z,36.88
2023-01-23T17:46:47.242Z,41.67
2023-01-23T17:49:26.749Z,35.97
2023-01-23T17:51:54.754Z,34.83
2023-01-23T17:54:22.397Z,35.38
2023-01-23T17:56:49.633Z,41.97
2023-01-23T17:59:16.779Z,35.55
2023-01-23T18:01:43.959Z,43.05
2023-01-23T18:04:17.317Z,40.90
2023-01-23T18:06:44.707Z,37.53
2023-01-23T18:09:12.178Z,40.78
2023-01-23T18:11:41.066Z,43.40
2023-01-23T18:14:08.215Z,39.63
2023-01-23T18:16:41.645Z,38.05
2023-01-23T18:19:19.347Z,39.90
2023-01-23T18:21:47.644Z,43.13
2023-01-23T18:24:19.593Z,40.88
2023-01-23T18:26:54.568Z,38.95
2023-01-23T18:29:24.868Z,41.35
2023-01-23T18:31:59.586Z,45.13
2023-01-23T18:34:45.415Z,40.35
2023-01-23T18:37:24.861Z,44.30
2023-01-23T18:39:52.003Z,42.88
2023-01-23T18:42:30.004Z,41.65
2023-01-23T18:44:59.871Z,43.78
2023-01-23T18:47:27.335Z,40.72
2023-01-23T18:49:54.733Z,39.63
2023-01-23T18:52:36.754Z,42.28
2023-01-23T18:55:13.214Z,44.33
2023-01-23T18:57:55.393Z,43.35
2023-01-23T19:00:24.834Z,43.22
2023-01-23T19:02:55.267Z,39.85
2023-01-23T19:05:25.611Z,42.75
2023-01-23T19:07:52.870Z,46.78
2023-01-23T19:10:21.710Z,42.80
2023-01-23T19:12:52.122Z,44.15
2023-01-23T19:15:42.275Z,46.67
2023-01-23T19:18:09.563Z,44.83
2023-01-23T19:20:43.032Z,47.38
2023-01-23T19:23:20.251Z,45.83
2023-01-23T19:25:48.091Z,40.28
2023-01-23T19:28:15.922Z,47.20
2023-01-23T19:30:43.849Z,44.83
2023-01-23T19:33:17.459Z,41.90
2023-01-23T19:35:45.311Z,41.83
2023-01-23T19:38:12.468Z,43.55
2023-01-23T19:40:40.001Z,40.85
2023-01-23T19:43:14.449Z,40.67
2023-01-23T19:45:42.281Z,40.83
2023-01-23T19:48:09.589Z,42.60
2023-01-23T19:50:36.764Z,44.90
2023-01-23T19:53:04.028Z,47.47
2023-01-23T19:55:35.873Z,41.17
2023-01-23T19:58:03.217Z,44.90
2023-01-23T20:00:32.781Z,42.13
2023-01-23T20:03:00.028Z,40.03
2023-01-23T20:05:27.727Z,36.67
2023-01-23T20:07:56.989Z,38.13
2023-01-23T20:10:24.468Z,43.42
2023-01-23T20:12:52.568Z,41.55
2023-01-23T20:15:21.146Z,46.17
2023-01-23T20:17:48.680Z,39.17
2023-01-23T20:20:16.043Z,40.63
2023-01-23T20:22:43.568Z,39.22
2023-01-23T20:25:12.216Z,38.38
2023-01-23T20:27:39.903Z,38.38
2023-01-23T20:30:08.561Z,37.67
2023-01-23T20:32:35.762Z,36.38
2023-01-23T20:35:02.959Z,37.15
2023-01-23T20:37:30.280Z,36.90
2023-01-23T20:39:57.663Z,32.70
2023-01-23T20:42:25.123Z,34.15
2023-01-23T20:44:52.321Z,34.47
2023-01-23T20:47:19.551Z,35.42
2023-01-23T20:49:46.855Z,33.85
2023-01-23T20:52:32.766Z,33.58
2023-01-23T20:54:59.949Z,36.50
2023-01-23T20:57:47.161Z,39.55
2023-01-23T21:00:14.554Z,38.22
2023-01-23T21:02:41.758Z,33.20
2023-01-23T21:05:09.013Z,40.15
2023-01-23T21:07:36.197Z,36.67
2023-01-23T21:10:03.400Z,35.55
2023-01-23T21:12:30.653Z,36.75
2023-01-23T21:14:57.860Z,31.02
2023-01-23T21:17:25.481Z,29.00
2023-01-23T21:19:52.784Z,34.05
2023-01-23T21:22:19.984Z,34.03
2023-01-23T21:24:47.133Z,24.75
2023-01-23T21:27:14.386Z,27.15
2023-01-23T21:29:41.537Z,25.45
2023-01-23T21:32:08.847Z,30.73
2023-01-23T21:34:36.117Z,25.02
2023-01-23T21:37:07.107Z,28.20
2023-01-23T21:39:34.354Z,24.27
2023-01-23T21:42:01.527Z,25.55
2023-01-23T21:44:28.755Z,20.45
2023-01-23T21:46:55.898Z,26.33
2023-01-23T21:49:23.210Z,21.88
2023-01-23T21:51:50.332Z,26.60
2023-01-23T21:54:17.526Z,26.90
2023-01-23T21:56:44.742Z,30.50
2023-01-23T21:59:12.000Z,24.63
2023-01-23T22:01:46.522Z,25.25
2023-01-23T22:04:15.243Z,26.10
2023-01-23T22:06:43.255Z,26.38
2023-01-23T22:09:11.813Z,19.95
2023-01-23T22:11:38.945Z,28.30
2023-01-23T22:14:06.070Z,27.60
2023-01-23T22:16:47.484Z,29.00
2023-01-23T22:19:16.191Z,28.23
2023-01-23T22:21:44.402Z,28.50
2023-01-23T22:24:11.626Z,29.00
2023-01-23T22:26:38.970Z,27.08
2023-01-23T22:29:06.166Z,28.98
2023-01-23T22:31:33.399Z,27.67
2023-01-23T22:34:00.635Z,27.50
2023-01-23T22:36:27.861Z,21.50
2023-01-23T22:38:55.305Z,24.92
2023-01-23T22:41:23.034Z,32.58
2023-01-23T22:43:54.476Z,26.30
2023-01-23T22:48:48.810Z,29.02
2023-01-23T22:51:17.755Z,28.52
2023-01-23T22:53:45.019Z,31.33
2023-01-23T22:56:12.899Z,24.58
2023-01-23T22:58:40.094Z,31.55
2023-01-23T23:01:07.298Z,26.85
2023-01-23T23:03:35.246Z,29.08
2023-01-23T23:06:04.313Z,28.90
2023-01-23T23:08:31.785Z,31.45
2023-01-23T23:10:59.770Z,25.45
2023-01-23T23:13:27.268Z,26.67
2023-01-23T23:15:54.406Z,26.95
2023-01-23T23:18:21.609Z,23.95
2023-01-23T23:20:49.171Z,25.95
2023-01-23T23:23:16.589Z,25.33
2023-01-23T23:25:43.724Z,25.23
2023-01-23T23:28:10.940Z,32.13
2023-01-23T23:30:38.125Z,27.80
2023-01-23T23:33:05.312Z,24.23
2023-01-23T23:35:32.535Z,24.15
2023-01-23T23:37:59.669Z,29.55
2023-01-23T23:40:26.836Z,25.23
2023-01-23T23:42:54.096Z,27.55
2023-01-23T23:45:21.482Z,28.75
2023-01-23T23:47:48.833Z,25.92
2023-01-23T23:50:16.044Z,25.50
2023-01-23T23:52:43.226Z,29.42
